Time;durP1;ratioP1;P1;durP2;ratioP2;P2;SDS_P1;SDS_P2;PMS_P1;PMS_P2;Temp;Humidity;BMP_temperature;BMP_pressure;BME280_temperature;BME280_humidity;BME280_pressure;Samples;Min_cycle;Max_cycle;Signal;HPM_P1;HPM_P2
2021/12/21 00:02:02;;;;;;;18.80;6.43;;;5.80;99.90;;;;;;5066027;28;20091;-88
2021/12/21 00:04:31;;;;;;;22.98;6.70;;;5.90;99.90;;;;;;5048196;28;20053;-88
2021/12/21 00:07:05;;;;;;;18.45;4.95;;;5.80;99.90;;;;;;5065553;28;20048;-88
2021/12/21 00:09:36;;;;;;;24.85;4.97;;;6.00;99.90;;;;;;5067317;28;20106;-89
2021/12/21 00:12:05;;;;;;;15.07;5.43;;;5.90;99.90;;;;;;5066982;28;20053;-88
2021/12/21 00:14:43;;;;;;;;;;;5.80;99.90;;;;;;5067707;28;20060;-89
2021/12/21 00:20:09;;;;;;;15.30;4.78;;;5.80;99.90;;;;;;5068170;22;20061;-90
2021/12/21 00:25:20;;;;;;;21.92;6.13;;;5.90;99.90;;;;;;5045626;28;20053;-88
2021/12/21 00:27:48;;;;;;;20.85;7.18;;;5.80;99.90;;;;;;5046038;28;20053;-88
2021/12/21 00:30:18;;;;;;;19.27;7.00;;;5.90;99.90;;;;;;5046035;28;20072;-87
2021/12/21 00:32:46;;;;;;;23.60;8.63;;;5.90;99.90;;;;;;5064841;22;20049;-87
2021/12/21 00:35:14;;;;;;;18.80;7.63;;;5.90;99.90;;;;;;5047969;28;20079;-87
2021/12/21 00:37:47;;;;;;;16.85;8.55;;;5.90;99.90;;;;;;5065836;28;20079;-88
2021/12/21 00:40:17;;;;;;;20.92;8.75;;;5.80;99.90;;;;;;5065729;28;20071;-89
2021/12/21 00:42:44;;;;;;;26.77;9.50;;;5.80;99.90;;;;;;5066935;28;20080;-89
2021/12/21 00:45:20;;;;;;;24.38;8.52;;;5.60;99.90;;;;;;5069099;28;20053;-88
2021/12/21 00:47:49;;;;;;;35.00;9.23;;;5.50;99.90;;;;;;5069693;28;20052;-88
2021/12/21 00:50:18;;;;;;;;;;;5.80;99.90;;;;;;5051819;28;20073;-87
2021/12/21 00:52:48;;;;;;;21.13;7.93;;;5.90;99.90;;;;;;5069596;28;19921;-87
2021/12/21 00:55:15;;;;;;;17.08;7.25;;;5.70;99.90;;;;;;5069638;28;20521;-88
2021/12/21 00:57:45;;;;;;;17.42;7.72;;;5.80;99.90;;;;;;5069408;28;20045;-89
2021/12/21 01:00:19;;;;;;;16.05;7.47;;;5.70;99.90;;;;;;5069580;28;20049;-88
2021/12/21 01:02:49;;;;;;;20.33;6.85;;;5.70;99.90;;;;;;5069713;28;20076;-88
2021/12/21 01:05:24;;;;;;;18.35;8.30;;;5.60;99.90;;;;;;5069381;28;20045;-88
2021/12/21 01:07:57;;;;;;;21.98;8.75;;;5.60;99.90;;;;;;5069733;28;20049;-88
2021/12/21 01:10:50;;;;;;;15.98;8.27;;;5.70;99.90;;;;;;5069739;28;20044;-88
2021/12/21 01:13:37;;;;;;;25.38;9.65;;;5.50;99.90;;;;;;5069658;28;20041;-88
2021/12/21 01:19:03;;;;;;;19.05;8.90;;;5.60;99.90;;;;;;5065548;28;20084;-90
2021/12/21 01:21:36;;;;;;;17.92;8.10;;;5.60;99.90;;;;;;5068923;28;20045;-89
2021/12/21 01:27:14;;;;;;;18.25;8.93;;;5.80;99.90;;;;;;5069140;28;20053;-89
2021/12/21 01:29:51;;;;;;;25.83;12.20;;;5.70;99.90;;;;;;5068865;28;20053;-88
2021/12/21 01:32:31;;;;;;;28.30;9.65;;;6.80;99.90;;;;;;5068677;28;20056;-88
2021/12/21 01:35:05;;;;;;;21.38;9.32;;;5.70;99.90;;;;;;5068552;28;20044;-88
2021/12/21 01:37:46;;;;;;;20.23;8.30;;;4.20;99.90;;;;;;5069041;28;20067;-89
2021/12/21 01:40:37;;;;;;;19.58;8.93;;;6.50;99.90;;;;;;5068932;28;20102;-89
2021/12/21 01:51:36;;;;;;;18.38;9.32;;;5.70;99.90;;;;;;5068471;28;20084;-89
2021/12/21 01:54:06;;;;;;;18.58;10.75;;;5.60;99.90;;;;;;5068068;28;20049;-89
2021/12/21 01:56:40;;;;;;;17.90;8.88;;;5.50;99.90;;;;;;5068362;28;20045;-88
2021/12/21 01:59:12;;;;;;;17.92;8.65;;;5.50;99.90;;;;;;5068440;28;20071;-88
2021/12/21 02:01:39;;;;;;;14.77;7.70;;;5.50;99.90;;;;;;5068381;28;20055;-87
2021/12/21 02:04:11;;;;;;;19.00;9.43;;;5.80;99.90;;;;;;5050160;28;20106;-87
2021/12/21 02:06:39;;;;;;;19.20;8.63;;;5.60;99.90;;;;;;5069083;28;20057;-87
2021/12/21 02:09:09;;;;;;;20.23;10.68;;;5.60;99.90;;;;;;5051289;28;20076;-87
2021/12/21 02:11:38;;;;;;;15.68;9.18;;;4.60;99.90;;;;;;5068881;28;20442;-88
2021/12/21 02:14:09;;;;;;;22.58;9.38;;;4.20;99.90;;;;;;5068380;28;20041;-88
2021/12/21 02:16:52;;;;;;;23.33;10.85;;;5.60;99.90;;;;;;5068132;28;20041;-88
2021/12/21 02:19:28;;;;;;;27.52;9.77;;;5.90;99.90;;;;;;5067106;28;20099;-88
2021/12/21 02:22:11;;;;;;;24.30;8.90;;;5.70;99.90;;;;;;5061153;28;20076;-88
2021/12/21 02:24:48;;;;;;;17.67;9.50;;;5.40;99.90;;;;;;5067086;28;20056;-88
2021/12/21 02:27:27;;;;;;;16.48;8.88;;;5.50;99.90;;;;;;5066514;28;20104;-89
2021/12/21 02:30:00;;;;;;;20.38;9.65;;;5.70;99.90;;;;;;5067641;28;20049;-89
2021/12/21 02:32:30;;;;;;;16.45;8.75;;;5.80;99.90;;;;;;5067114;28;20060;-88
2021/12/21 02:35:01;;;;;;;15.48;8.07;;;5.70;99.90;;;;;;5067296;28;20060;-89
2021/12/21 02:37:32;;;;;;;17.38;8.70;;;5.70;99.90;;;;;;5067452;28;20041;-87
2021/12/21 02:40:02;;;;;;;20.77;8.43;;;5.60;99.90;;;;;;5067116;28;20053;-88
2021/12/21 02:42:29;;;;;;;16.52;8.50;;;5.60;99.90;;;;;;5067068;28;20049;-88
2021/12/21 02:44:58;;;;;;;22.23;8.80;;;5.60;99.90;;;;;;5066860;28;20072;-89
2021/12/21 02:47:31;;;;;;;15.90;8.60;;;5.50;99.90;;;;;;5066503;28;20072;-89
2021/12/21 02:50:03;;;;;;;29.15;9.00;;;5.60;99.90;;;;;;5066741;28;20064;-88
2021/12/21 02:52:33;;;;;;;22.42;9.98;;;5.50;99.90;;;;;;5048816;28;20052;-89
2021/12/21 02:55:03;;;;;;;25.10;8.90;;;5.60;99.90;;;;;;5066582;28;20140;-88
2021/12/21 02:57:30;;;;;;;19.30;8.50;;;5.50;99.90;;;;;;5066755;28;20915;-88
2021/12/21 03:00:00;;;;;;;22.42;9.30;;;5.50;99.90;;;;;;5067246;28;20060;-88
2021/12/21 03:02:28;;;;;;;19.67;9.30;;;5.40;99.90;;;;;;5066717;28;20053;-88
2021/12/21 03:04:56;;;;;;;21.98;11.57;;;5.50;99.90;;;;;;5066626;28;20104;-89
2021/12/21 03:07:57;;;;;;;16.33;8.95;;;5.50;99.90;;;;;;5065615;28;20045;-88
2021/12/21 03:10:58;;;;;;;17.45;8.88;;;5.50;99.90;;;;;;5065995;28;20410;-90
2021/12/21 03:16:10;;;;;;;21.95;9.68;;;5.60;99.90;;;;;;5066896;28;20056;-88
2021/12/21 03:18:42;;;;;;;19.15;10.02;;;5.70;99.90;;;;;;5066818;28;20080;-88
2021/12/21 03:21:12;;;;;;;19.35;10.13;;;5.60;99.90;;;;;;5065783;28;20517;-88
2021/12/21 03:23:41;;;;;;;22.13;10.15;;;5.70;99.90;;;;;;5067005;28;20418;-90
2021/12/21 03:26:16;;;;;;;18.42;9.18;;;5.50;99.90;;;;;;5066823;28;20079;-88
2021/12/21 03:28:45;;;;;;;20.77;10.07;;;5.50;99.90;;;;;;5066485;28;20080;-89
2021/12/21 03:31:13;;;;;;;20.80;9.35;;;5.60;99.90;;;;;;5066635;28;20049;-88
2021/12/21 03:33:43;;;;;;;17.75;10.43;;;5.70;99.90;;;;;;5066685;28;20045;-89
2021/12/21 03:36:11;;;;;;;20.00;10.50;;;5.70;99.90;;;;;;5066174;28;20057;-89
2021/12/21 03:38:48;;;;;;;21.67;10.60;;;5.70;99.90;;;;;;5066153;28;20041;-89
2021/12/21 03:41:18;;;;;;;21.42;10.68;;;5.50;99.90;;;;;;5048459;28;20049;-87
2021/12/21 03:43:45;;;;;;;24.98;11.73;;;5.40;99.90;;;;;;5066241;28;20076;-89
2021/12/21 03:46:14;;;;;;;17.35;10.98;;;5.50;99.90;;;;;;5066202;28;20044;-88
2021/12/21 03:48:44;;;;;;;21.25;11.95;;;5.40;99.90;;;;;;5066471;28;20045;-88
2021/12/21 03:51:12;;;;;;;19.70;11.27;;;5.70;99.90;;;;;;5066652;28;20109;-89
2021/12/21 03:53:42;;;;;;;20.88;11.13;;;5.50;99.90;;;;;;5059406;22;20411;-88
2021/12/21 03:56:30;;;;;;;18.63;11.15;;;5.50;99.90;;;;;;5046127;28;20068;-88
2021/12/21 03:58:59;;;;;;;24.85;11.30;;;5.50;99.90;;;;;;5045712;28;20121;-90
2021/12/21 04:01:28;;;;;;;19.92;10.45;;;5.70;99.90;;;;;;5045806;28;20117;-88
2021/12/21 04:03:58;;;;;;;26.63;11.23;;;5.60;99.90;;;;;;5046924;28;20100;-88
2021/12/21 04:06:29;;;;;;;19.25;10.70;;;5.70;99.90;;;;;;5047481;28;20045;-88
2021/12/21 04:08:56;;;;;;;27.20;12.02;;;5.60;99.90;;;;;;5047511;28;20042;-88
2021/12/21 04:11:35;;;;;;;25.02;11.32;;;5.60;99.90;;;;;;5047247;28;20049;-88
2021/12/21 04:14:16;;;;;;;;;;;5.60;99.90;;;;;;5046099;28;20045;-88
2021/12/21 04:16:44;;;;;;;22.27;10.75;;;5.40;99.90;;;;;;5045930;28;19921;-88
2021/12/21 04:19:13;;;;;;;26.67;11.63;;;5.40;99.90;;;;;;5045388;28;20415;-89
2021/12/21 04:21:43;;;;;;;27.42;12.43;;;5.30;99.90;;;;;;5045638;28;20061;-88
2021/12/21 04:24:11;;;;;;;23.75;11.52;;;5.30;99.90;;;;;;5045421;28;20483;-89
2021/12/21 04:26:39;;;;;;;22.45;11.00;;;5.40;99.90;;;;;;5044867;28;20054;-89
2021/12/21 04:29:10;;;;;;;23.00;11.70;;;5.20;99.90;;;;;;5046461;28;20049;-89
2021/12/21 04:31:40;;;;;;;21.67;11.10;;;5.40;99.90;;;;;;5046857;28;20053;-88
2021/12/21 04:34:07;;;;;;;37.30;12.18;;;5.30;99.90;;;;;;5045436;28;20068;-89
2021/12/21 04:36:38;;;;;;;25.75;11.75;;;5.30;99.90;;;;;;5044929;28;20115;-89
2021/12/21 04:39:16;;;;;;;28.45;12.30;;;5.30;99.90;;;;;;5045479;28;20045;-87
2021/12/21 04:41:47;;;;;;;30.00;10.97;;;5.50;99.90;;;;;;5045334;28;20092;-88
2021/12/21 04:44:27;;;;;;;24.95;14.68;;;5.40;99.90;;;;;;5044969;28;20049;-88
2021/12/21 04:46:56;;;;;;;27.27;11.52;;;5.60;99.90;;;;;;5045049;28;20072;-88
2021/12/21 04:49:26;;;;;;;28.83;11.55;;;5.70;99.90;;;;;;5044998;28;20057;-88
2021/12/21 04:51:53;;;;;;;21.15;11.45;;;5.50;99.90;;;;;;5045080;28;20080;-88
2021/12/21 04:54:20;;;;;;;21.17;10.65;;;7.40;99.90;;;;;;5045053;28;20127;-89
2021/12/21 04:56:47;;;;;;;21.75;11.82;;;4.90;99.90;;;;;;5045278;28;20049;-89
2021/12/21 04:59:17;;;;;;;20.92;9.55;;;5.50;99.90;;;;;;5044378;28;20480;-89
2021/12/21 05:01:44;;;;;;;17.42;10.05;;;5.70;99.90;;;;;;5045356;28;20052;-90
2021/12/21 05:04:12;;;;;;;23.20;10.27;;;5.60;99.90;;;;;;5044415;28;20103;-89
2021/12/21 05:06:39;;;;;;;20.95;9.57;;;5.40;99.90;;;;;;5044696;28;20046;-88
2021/12/21 05:09:13;;;;;;;25.40;9.23;;;5.40;99.90;;;;;;5044711;28;20080;-90
2021/12/21 05:11:43;;;;;;;19.08;8.38;;;5.40;99.90;;;;;;5044860;28;20053;-90
2021/12/21 05:14:11;;;;;;;19.92;8.15;;;5.40;99.90;;;;;;5044443;28;20060;-88
2021/12/21 05:16:48;;;;;;;19.95;6.93;;;5.40;99.90;;;;;;5045105;28;20080;-89
2021/12/21 05:19:17;;;;;;;12.13;6.07;;;5.40;99.90;;;;;;5044173;28;20060;-88
2021/12/21 05:21:45;;;;;;;11.80;6.10;;;5.60;99.90;;;;;;5045214;28;20133;-90
2021/12/21 05:26:55;;;;;;;23.00;5.45;;;5.50;99.90;;;;;;5045210;28;20045;-89
2021/12/21 05:29:24;;;;;;;17.17;7.90;;;5.60;99.90;;;;;;5045376;28;20056;-88
2021/12/21 05:31:57;;;;;;;14.27;6.22;;;5.60;99.90;;;;;;5048377;28;20053;-88
2021/12/21 05:34:25;;;;;;;13.68;5.88;;;5.40;99.90;;;;;;5048046;28;20049;-87
2021/12/21 05:36:52;;;;;;;16.88;6.45;;;5.30;99.90;;;;;;5048760;28;20556;-87
2021/12/21 05:42:03;;;;;;;11.93;5.82;;;5.40;99.90;;;;;;5048167;28;20061;-88
2021/12/21 05:44:31;;;;;;;12.70;5.40;;;5.40;99.90;;;;;;5047414;28;20053;-88
2021/12/21 05:47:05;;;;;;;32.97;7.78;;;5.40;99.90;;;;;;5046952;28;20046;-88
2021/12/21 05:49:34;;;;;;;18.77;5.80;;;5.40;99.90;;;;;;5047471;28;20048;-88
2021/12/21 05:52:05;;;;;;;14.95;5.15;;;5.30;99.90;;;;;;5046086;28;20057;-91
2021/12/21 05:54:39;;;;;;;15.18;5.95;;;5.30;99.90;;;;;;5046836;28;20057;-90
2021/12/21 05:57:09;;;;;;;19.27;5.90;;;5.20;99.90;;;;;;5047137;28;20045;-91
2021/12/21 05:59:38;;;;;;;21.40;6.55;;;5.20;99.90;;;;;;5046811;28;20046;-89
2021/12/21 06:02:06;;;;;;;35.28;7.38;;;5.30;99.90;;;;;;5046409;28;20045;-88
2021/12/21 06:04:34;;;;;;;11.93;5.97;;;5.20;99.90;;;;;;5049102;28;20060;-89
2021/12/21 06:07:09;;;;;;;15.45;6.35;;;5.10;99.90;;;;;;5048564;28;20051;-87
2021/12/21 06:09:38;;;;;;;13.88;6.80;;;5.10;99.90;;;;;;5048829;28;20046;-87
2021/12/21 06:12:12;;;;;;;16.02;5.47;;;5.80;99.90;;;;;;5048544;28;20051;-88
2021/12/21 06:15:13;;;;;;;19.50;6.82;;;5.30;99.90;;;;;;5047594;28;20492;-88
2021/12/21 06:26:04;;;;;;;12.43;6.22;;;5.40;99.90;;;;;;5040450;28;20049;-88
2021/12/21 06:28:34;;;;;;;15.13;5.63;;;5.60;99.90;;;;;;5047432;28;20064;-89
2021/12/21 06:31:02;;;;;;;20.95;6.78;;;5.30;99.90;;;;;;5047104;28;20113;-88
2021/12/21 06:33:32;;;;;;;15.45;6.22;;;5.30;99.90;;;;;;5070957;22;20058;-88
2021/12/21 06:36:00;;;;;;;9.93;5.75;;;5.20;99.90;;;;;;5047299;28;20095;-88
2021/12/21 06:38:31;;;;;;;19.00;6.13;;;5.20;99.90;;;;;;5047232;28;20072;-90
2021/12/21 06:40:58;;;;;;;20.05;6.75;;;4.80;99.90;;;;;;5047106;28;20064;-88
2021/12/21 06:43:26;;;;;;;18.20;6.40;;;5.30;99.90;;;;;;5046827;28;20057;-88
2021/12/21 06:46:00;;;;;;;22.20;6.88;;;5.40;99.90;;;;;;5046990;28;20057;-88
2021/12/21 06:51:22;;;;;;;28.70;6.28;;;5.50;99.90;;;;;;5047178;28;20087;-89
2021/12/21 06:53:53;;;;;;;29.80;8.07;;;5.50;99.90;;;;;;5028707;28;20041;-90
2021/12/21 06:56:22;;;;;;;16.00;7.10;;;5.50;99.90;;;;;;5046229;28;20041;-89
2021/12/21 06:58:53;;;;;;;33.00;9.07;;;5.30;99.90;;;;;;5046409;28;20469;-88
2021/12/21 07:01:20;;;;;;;19.58;7.22;;;5.20;99.90;;;;;;5046595;28;20049;-88
2021/12/21 07:03:50;;;;;;;18.23;6.38;;;4.90;99.90;;;;;;5046572;28;20113;-88
2021/12/21 07:06:19;;;;;;;24.13;9.55;;;5.30;99.90;;;;;;5046832;28;20073;-89
2021/12/21 07:08:54;;;;;;;;;;;5.40;99.90;;;;;;5046727;28;20083;-88
2021/12/21 07:11:35;;;;;;;37.30;8.82;;;5.30;99.90;;;;;;5045572;28;19920;-89
2021/12/21 07:19:33;;;;;;;17.98;7.30;;;5.50;99.90;;;;;;5045998;28;20055;-87
2021/12/21 07:22:04;;;;;;;17.08;7.43;;;5.30;99.90;;;;;;5045971;28;20049;-89
2021/12/21 07:24:34;;;;;;;37.42;9.63;;;5.30;99.90;;;;;;5046296;28;20057;-89
2021/12/21 07:27:01;;;;;;;31.30;8.32;;;5.30;99.90;;;;;;5044465;28;20531;-88
2021/12/21 07:29:30;;;;;;;24.23;9.05;;;5.40;99.90;;;;;;5043947;28;20053;-90
2021/12/21 07:31:58;;;;;;;30.50;9.05;;;5.40;99.90;;;;;;5044094;28;20046;-90
2021/12/21 07:34:25;;;;;;;28.27;7.85;;;5.20;99.90;;;;;;5041350;28;20057;-92
2021/12/21 07:36:52;;;;;;;23.80;8.20;;;5.50;99.90;;;;;;5041930;28;20050;-90
2021/12/21 07:39:21;;;;;;;36.30;10.20;;;5.30;99.90;;;;;;5047690;23;20573;-91
2021/12/21 07:41:49;;;;;;;15.90;7.65;;;5.30;99.90;;;;;;5041546;28;20107;-88
2021/12/21 07:44:16;;;;;;;24.65;10.43;;;5.20;99.90;;;;;;5042091;28;20048;-92
2021/12/21 07:46:43;;;;;;;24.40;9.55;;;5.20;99.90;;;;;;5042267;28;20056;-89
2021/12/21 07:49:12;;;;;;;26.10;10.63;;;5.80;99.90;;;;;;5042415;28;20045;-89
2021/12/21 07:51:40;;;;;;;25.70;9.35;;;5.70;99.90;;;;;;5042001;28;20428;-91
2021/12/21 07:54:07;;;;;;;23.25;13.18;;;5.20;99.90;;;;;;5041021;28;20045;-91
2021/12/21 07:56:41;;;;;;;27.83;10.38;;;5.20;99.90;;;;;;5043357;28;20542;-86
2021/12/21 07:59:11;;;;;;;19.35;9.85;;;5.40;99.90;;;;;;5041864;28;20045;-91
2021/12/21 08:01:46;;;;;;;24.95;9.80;;;5.40;99.90;;;;;;5041132;28;20053;-92
2021/12/21 08:04:13;;;;;;;27.00;10.65;;;5.30;99.90;;;;;;5041338;28;20049;-90
2021/12/21 08:06:44;;;;;;;27.83;11.05;;;5.30;99.90;;;;;;5045369;28;20049;-88
2021/12/21 08:09:12;;;;;;;21.00;11.23;;;5.40;99.90;;;;;;5046643;28;20050;-88
2021/12/21 08:14:27;;;;;;;23.17;11.25;;;5.30;99.90;;;;;;5044734;28;20488;-90
2021/12/21 08:16:54;;;;;;;29.30;12.00;;;5.30;99.90;;;;;;5041573;28;20053;-91
2021/12/21 08:19:21;;;;;;;24.95;11.02;;;4.10;99.90;;;;;;5041902;28;20290;-90
2021/12/21 08:21:49;;;;;;;28.85;10.98;;;5.30;99.90;;;;;;5041138;28;20096;-91
2021/12/21 08:24:16;;;;;;;68.38;13.90;;;5.30;99.90;;;;;;5042965;28;20159;-88
2021/12/21 08:26:48;;;;;;;40.72;13.00;;;5.20;99.90;;;;;;5044953;28;20474;-90
2021/12/21 08:29:15;;;;;;;36.45;12.15;;;5.20;99.90;;;;;;5043694;28;20060;-87
2021/12/21 08:31:46;;;;;;;35.55;12.15;;;5.40;99.90;;;;;;5044709;28;20057;-89
2021/12/21 08:34:15;;;;;;;71.70;17.90;;;5.30;99.90;;;;;;5042743;28;20132;-89
2021/12/21 08:36:42;;;;;;;32.38;11.82;;;5.40;99.90;;;;;;5038623;28;20057;-89
2021/12/21 08:39:10;;;;;;;38.47;13.23;;;5.20;99.90;;;;;;5037480;28;20060;-91
2021/12/21 08:41:41;;;;;;;29.27;12.02;;;5.30;99.90;;;;;;5037432;28;20061;-89
2021/12/21 08:44:11;;;;;;;20.80;10.13;;;5.50;99.90;;;;;;5036377;28;20037;-90
2021/12/21 08:46:40;;;;;;;41.28;13.93;;;5.40;99.90;;;;;;5028063;28;20079;-90
2021/12/21 08:49:07;;;;;;;32.23;13.60;;;5.70;99.90;;;;;;5014510;28;20061;-89
2021/12/21 08:51:34;;;;;;;29.88;12.55;;;5.20;99.90;;;;;;5024970;28;20046;-89
2021/12/21 08:54:01;;;;;;;45.58;14.63;;;5.40;99.90;;;;;;4994754;28;20065;-89
2021/12/21 08:56:29;;;;;;;27.48;12.00;;;5.30;99.90;;;;;;4982333;28;20739;-92
2021/12/21 08:58:56;;;;;;;42.33;13.88;;;5.40;99.90;;;;;;4970129;28;20071;-91
2021/12/21 09:01:26;;;;;;;40.28;13.30;;;5.20;99.90;;;;;;4988706;28;20037;-87
2021/12/21 09:03:57;;;;;;;35.88;12.13;;;5.50;99.90;;;;;;5014343;28;20042;-90
2021/12/21 09:06:25;;;;;;;30.63;11.88;;;5.30;99.90;;;;;;5044816;28;20523;-89
2021/12/21 09:08:53;;;;;;;39.85;13.32;;;5.30;99.90;;;;;;5040073;28;20054;-88
2021/12/21 09:11:20;;;;;;;45.13;12.88;;;5.20;99.90;;;;;;5040165;28;20045;-89
2021/12/21 09:13:47;;;;;;;32.05;12.68;;;5.20;99.90;;;;;;5036707;28;20053;-91
2021/12/21 09:16:15;;;;;;;28.08;12.00;;;5.20;99.90;;;;;;5010261;28;20057;-89
2021/12/21 09:18:43;;;;;;;41.85;12.57;;;5.60;99.90;;;;;;5035572;28;20041;-91
2021/12/21 09:21:12;;;;;;;24.67;10.55;;;5.30;99.90;;;;;;5037024;28;20049;-92
2021/12/21 09:23:40;;;;;;;27.25;10.20;;;5.50;99.90;;;;;;5038026;28;20052;-89
2021/12/21 09:26:08;;;;;;;25.47;9.80;;;5.40;99.90;;;;;;5034820;28;20086;-93
2021/12/21 09:28:35;;;;;;;23.95;9.57;;;5.30;99.90;;;;;;5030542;28;20302;-88
2021/12/21 09:31:02;;;;;;;25.88;9.25;;;5.90;99.90;;;;;;4973840;28;20048;-89
2021/12/21 09:33:34;;;;;;;24.00;8.98;;;5.20;99.90;;;;;;4991987;28;20448;-90
2021/12/21 09:36:02;;;;;;;24.48;8.98;;;5.30;99.90;;;;;;5032670;28;20045;-91
2021/12/21 09:38:31;;;;;;;30.17;9.55;;;5.30;99.90;;;;;;5037107;28;20057;-91
2021/12/21 09:40:58;;;;;;;;;;;5.30;99.90;;;;;;5038718;28;20057;-90
2021/12/21 09:43:32;;;;;;;30.67;10.00;;;5.30;99.90;;;;;;5030405;28;19936;-87
2021/12/21 09:45:59;;;;;;;25.80;7.88;;;5.30;99.90;;;;;;5035962;28;20042;-88
2021/12/21 09:48:28;;;;;;;23.80;8.25;;;5.30;99.90;;;;;;5043982;28;20608;-90
2021/12/21 09:50:57;;;;;;;29.90;8.82;;;5.30;99.90;;;;;;5032712;28;20112;-91
2021/12/21 09:53:31;;;;;;;25.42;7.75;;;5.40;99.90;;;;;;5039489;28;20049;-87
2021/12/21 09:56:05;;;;;;;28.27;8.48;;;5.30;99.90;;;;;;5039582;28;20060;-90
2021/12/21 09:58:33;;;;;;;27.88;9.45;;;5.50;99.90;;;;;;5036849;28;20072;-90
2021/12/21 10:01:08;;;;;;;26.58;9.68;;;5.40;99.90;;;;;;5040807;28;20053;-88
2021/12/21 10:03:35;;;;;;;23.52;8.02;;;5.70;99.90;;;;;;5041081;28;20053;-92
2021/12/21 10:06:05;;;;;;;20.52;7.47;;;5.60;99.90;;;;;;5043921;28;20056;-90
2021/12/21 10:08:39;;;;;;;36.75;8.55;;;5.60;99.90;;;;;;4991944;28;20057;-89
2021/12/21 10:11:21;;;;;;;27.75;8.77;;;5.40;99.90;;;;;;5012619;28;20089;-89
2021/12/21 10:13:49;;;;;;;42.35;8.93;;;5.50;99.90;;;;;;5029711;28;20042;-90
2021/12/21 10:16:21;;;;;;;20.98;7.80;;;5.50;99.90;;;;;;5040038;28;20088;-87
2021/12/21 10:18:52;;;;;;;35.25;8.55;;;5.50;99.90;;;;;;5044805;28;20076;-88
2021/12/21 10:21:25;;;;;;;29.63;7.63;;;5.70;99.90;;;;;;5029106;28;20475;-87
2021/12/21 10:23:55;;;;;;;24.73;7.85;;;5.70;99.90;;;;;;5040300;28;20071;-92
2021/12/21 10:29:10;;;;;;;21.80;6.72;;;5.50;99.90;;;;;;5041456;28;20045;-91
2021/12/21 10:31:48;;;;;;;22.15;5.95;;;5.40;99.90;;;;;;5041733;28;20053;-89
2021/12/21 10:34:28;;;;;;;22.48;6.38;;;5.50;99.90;;;;;;5040003;28;20551;-92
2021/12/21 10:36:57;;;;;;;27.42;5.45;;;5.60;99.90;;;;;;5037571;28;20453;-89
2021/12/21 10:39:44;;;;;;;46.03;22.33;;;5.80;99.90;;;;;;5037470;28;20097;-90
2021/12/21 10:42:15;;;;;;;18.10;6.43;;;5.90;99.90;;;;;;5033861;28;20051;-90
2021/12/21 10:44:48;;;;;;;14.93;5.90;;;5.70;99.90;;;;;;5038064;28;20496;-91
2021/12/21 10:50:15;;;;;;;13.55;5.47;;;6.70;99.90;;;;;;5029887;28;20107;-89
2021/12/21 10:52:43;;;;;;;24.83;7.47;;;5.50;99.90;;;;;;5033833;28;20099;-90
2021/12/21 10:55:28;;;;;;;29.15;7.20;;;5.50;99.90;;;;;;5031859;28;20046;-88
2021/12/21 10:58:06;;;;;;;40.22;10.18;;;5.30;99.90;;;;;;5027340;28;20507;-90
2021/12/21 11:00:34;;;;;;;33.47;7.28;;;5.90;99.90;;;;;;5043449;28;20108;-89
2021/12/21 11:03:01;;;;;;;20.50;7.75;;;5.70;99.90;;;;;;5032627;28;20415;-90
2021/12/21 11:05:35;;;;;;;22.85;7.53;;;5.60;99.90;;;;;;5029287;28;20076;-90
2021/12/21 11:08:06;;;;;;;24.30;6.80;;;5.80;99.90;;;;;;5031246;28;20444;-89
2021/12/21 11:11:22;;;;;;;18.80;6.70;;;5.70;99.90;;;;;;5031945;28;20151;-91
2021/12/21 11:14:18;;;;;;;19.02;7.13;;;5.80;99.90;;;;;;4963366;28;20056;-90
2021/12/21 11:16:50;;;;;;;28.00;7.32;;;5.70;99.90;;;;;;4959221;28;20975;-91
2021/12/21 11:19:24;;;;;;;19.70;7.75;;;5.60;99.90;;;;;;4998676;28;20068;-89
2021/12/21 11:21:52;;;;;;;19.67;7.47;;;5.60;99.90;;;;;;5025738;28;20072;-91
2021/12/21 11:24:22;;;;;;;16.48;6.93;;;5.60;99.90;;;;;;4976762;28;20033;-88
2021/12/21 11:26:54;;;;;;;18.95;6.82;;;5.70;99.90;;;;;;4968190;28;20058;-88
2021/12/21 11:29:36;;;;;;;23.80;6.82;;;5.70;99.90;;;;;;4960690;28;20172;-90
2021/12/21 11:32:08;;;;;;;18.52;7.63;;;5.60;99.90;;;;;;4959547;28;20037;-89
2021/12/21 11:35:08;;;;;;;13.25;7.65;;;6.30;99.90;;;;;;4961878;28;20040;-87
2021/12/21 11:37:35;;;;;;;14.43;7.03;;;5.70;99.90;;;;;;4977688;28;20049;-89
2021/12/21 11:40:14;;;;;;;29.15;7.78;;;4.60;99.90;;;;;;4993778;28;20041;-91
2021/12/21 11:42:54;;;;;;;19.67;7.40;;;5.60;99.90;;;;;;4992299;28;20102;-90
2021/12/21 11:48:28;;;;;;;19.15;6.45;;;7.00;99.90;;;;;;4995401;28;20054;-91
2021/12/21 11:51:10;;;;;;;21.85;8.27;;;5.70;99.90;;;;;;5019042;28;20073;-89
2021/12/21 11:53:43;;;;;;;22.05;8.50;;;5.80;99.90;;;;;;5038351;28;20071;-87
2021/12/21 11:56:27;;;;;;;15.68;6.93;;;5.90;99.90;;;;;;5039024;28;20067;-90
2021/12/21 11:59:01;;;;;;;15.30;7.43;;;5.80;99.90;;;;;;5031080;28;20049;-90
2021/12/21 12:01:33;;;;;;;26.92;8.85;;;4.80;99.90;;;;;;4972606;28;20034;-90
2021/12/21 12:10:11;;;;;;;16.20;8.32;;;5.80;99.90;;;;;;4978006;28;20868;-88
2021/12/21 12:13:08;;;;;;;21.58;7.85;;;5.90;99.90;;;;;;4999775;28;20037;-92
2021/12/21 12:15:58;;;;;;;26.08;8.35;;;4.50;99.90;;;;;;4988266;28;20057;-93
2021/12/21 12:18:32;;;;;;;17.83;8.10;;;6.00;99.90;;;;;;4978670;28;20381;-90
2021/12/21 12:21:19;;;;;;;25.45;7.75;;;6.10;99.90;;;;;;4983069;28;20841;-87
2021/12/21 12:23:54;;;;;;;25.50;9.05;;;4.80;99.90;;;;;;4994508;28;20042;-92
2021/12/21 12:26:27;;;;;;;21.98;8.70;;;6.40;99.90;;;;;;4984167;28;21433;-89
2021/12/21 12:28:56;;;;;;;28.38;9.15;;;6.20;99.90;;;;;;5028812;28;20045;-92
2021/12/21 12:31:32;;;;;;;19.65;7.65;;;6.00;99.90;;;;;;5019242;28;20409;-90
2021/12/21 12:34:01;;;;;;;16.23;9.23;;;5.80;99.90;;;;;;4973836;28;20707;-90
2021/12/21 12:36:38;;;;;;;25.58;8.45;;;5.80;99.90;;;;;;4976742;28;20718;-91
2021/12/21 12:39:07;;;;;;;28.17;11.35;;;6.00;99.90;;;;;;5021119;28;20089;-89
2021/12/21 12:41:48;;;;;;;21.85;10.07;;;6.10;99.90;;;;;;5017578;28;20048;-90
2021/12/21 12:44:23;;;;;;;20.75;9.38;;;6.00;99.90;;;;;;5037349;28;20052;-88
2021/12/21 12:47:00;;;;;;;31.35;9.88;;;5.50;99.90;;;;;;5032509;28;20482;-89
2021/12/21 12:49:30;;;;;;;34.80;14.20;;;4.60;99.90;;;;;;5040185;28;20041;-89
2021/12/21 12:52:11;;;;;;;42.00;9.98;;;6.10;99.90;;;;;;5037379;28;20053;-89
2021/12/21 12:54:51;;;;;;;32.63;10.55;;;5.90;99.90;;;;;;5035653;28;20057;-91
2021/12/21 12:57:29;;;;;;;34.90;8.63;;;5.90;99.90;;;;;;5036490;28;20054;-86
2021/12/21 13:00:09;;;;;;;22.55;8.50;;;5.90;99.90;;;;;;5042062;28;20049;-91
2021/12/21 13:02:40;;;;;;;28.08;8.00;;;7.50;99.90;;;;;;5043442;28;20053;-91
2021/12/21 13:05:10;;;;;;;25.67;8.98;;;6.20;99.90;;;;;;5038481;28;20132;-89
2021/12/21 13:07:38;;;;;;;19.02;7.25;;;6.20;99.90;;;;;;5044249;28;20129;-90
2021/12/21 13:10:08;;;;;;;22.20;7.90;;;6.10;99.90;;;;;;5030244;28;20403;-89
2021/12/21 13:12:36;;;;;;;32.40;8.15;;;6.10;99.90;;;;;;5032452;28;20068;-89
2021/12/21 13:15:07;;;;;;;20.08;7.70;;;6.40;99.90;;;;;;5033516;28;20056;-91
2021/12/21 13:17:43;;;;;;;22.00;6.70;;;5.50;99.90;;;;;;5035169;28;20045;-90
2021/12/21 13:20:24;;;;;;;19.33;7.55;;;6.00;99.90;;;;;;5033730;28;20139;-91
2021/12/21 13:22:58;;;;;;;16.90;5.60;;;6.60;99.90;;;;;;5039936;28;20053;-88
2021/12/21 13:25:25;;;;;;;25.58;7.63;;;6.20;99.90;;;;;;5039159;28;20064;-89
2021/12/21 13:27:52;;;;;;;35.72;10.35;;;6.20;99.90;;;;;;5032151;28;20101;-90
2021/12/21 13:30:21;;;;;;;25.33;8.88;;;6.10;99.90;;;;;;5001716;28;20492;-91
2021/12/21 13:32:58;;;;;;;21.50;6.13;;;6.10;99.90;;;;;;5038640;28;20480;-91
2021/12/21 13:35:29;;;;;;;24.92;8.93;;;6.40;99.90;;;;;;5020012;28;20045;-90
2021/12/21 13:37:56;;;;;;;31.90;7.22;;;6.00;99.90;;;;;;4958038;28;20050;-91
2021/12/21 13:40:30;;;;;;;23.95;7.95;;;5.90;99.90;;;;;;4957198;28;21077;-89
2021/12/21 13:43:13;;;;;;;37.33;8.35;;;6.00;99.90;;;;;;4956447;28;20433;-90
2021/12/21 13:45:41;;;;;;;12.88;7.35;;;6.10;99.90;;;;;;4948370;28;20080;-90
2021/12/21 13:48:16;;;;;;;34.35;8.98;;;5.90;99.90;;;;;;4962569;28;20380;-89
2021/12/21 13:50:46;;;;;;;21.20;7.28;;;5.70;99.90;;;;;;4968108;28;20172;-89
2021/12/21 13:53:13;;;;;;;21.63;7.05;;;6.00;99.90;;;;;;4961358;28;20273;-93
2021/12/21 13:55:42;;;;;;;25.73;8.80;;;6.00;99.90;;;;;;4976570;28;20045;-89
2021/12/21 13:58:11;;;;;;;21.30;8.00;;;6.20;99.90;;;;;;4955632;28;21570;-89
2021/12/21 14:00:41;;;;;;;34.75;7.85;;;6.00;99.90;;;;;;4969416;28;20530;-90
2021/12/21 14:03:20;;;;;;;18.80;8.10;;;6.10;99.90;;;;;;4959564;28;20053;-90
2021/12/21 14:06:00;;;;;;;16.83;6.45;;;6.50;99.90;;;;;;4961246;28;20133;-89
2021/12/21 14:08:28;;;;;;;22.20;7.13;;;6.00;99.90;;;;;;4954608;28;20074;-85
2021/12/21 14:10:57;;;;;;;37.25;6.95;;;6.00;99.90;;;;;;4967070;28;21055;-91
2021/12/21 14:13:29;;;;;;;15.20;6.20;;;6.10;99.90;;;;;;4962893;28;20045;-87